Time;durP1;ratioP1;P1;durP2;ratioP2;P2;SDS_P1;SDS_P2;PMS_P1;PMS_P2;Temp;Humidity;BMP_temperature;BMP_pressure;BME280_temperature;BME280_humidity;BME280_pressure;Samples;Min_cycle;Max_cycle;Signal;HPM_P1;HPM_P2
2023/09/26 00:00:56;;;;;;;11.15;7.80;;;;;;;;;;5073054;28;20289;-69
2023/09/26 00:03:22;;;;;;;10.57;8.13;;;;;;;;;;5076604;28;20668;-69
2023/09/26 00:05:48;;;;;;;10.27;7.72;;;;;;;;;;5078048;28;20271;-70
2023/09/26 00:08:16;;;;;;;8.48;7.57;;;;;;;;;;5082124;28;20323;-69
2023/09/26 00:10:41;;;;;;;8.90;7.28;;;;;;;;;;5088377;28;20184;-70
2023/09/26 00:13:07;;;;;;;9.77;7.10;;;;;;;;;;5061537;28;20184;-70
2023/09/26 00:15:33;;;;;;;10.43;7.55;;;;;;;;;;5078154;28;20188;-70
2023/09/26 00:17:58;;;;;;;8.25;7.13;;;;;;;;;;5091177;28;20630;-70
2023/09/26 00:20:26;;;;;;;10.05;7.15;;;;;;;;;;5091441;28;20223;-70
2023/09/26 00:22:51;;;;;;;9.43;6.90;;;;;;;;;;5087078;28;20185;-70
2023/09/26 00:25:17;;;;;;;11.05;6.90;;;;;;;;;;5070844;28;20195;-70
2023/09/26 00:27:42;;;;;;;10.05;7.15;;;;;;;;;;5083708;28;20256;-70
2023/09/26 00:30:12;;;;;;;9.52;7.32;;;;;;;;;;5078987;28;20192;-70
2023/09/26 00:32:38;;;;;;;8.32;6.90;;;;;;;;;;5078842;28;20187;-70
2023/09/26 00:35:05;;;;;;;11.25;7.50;;;;;;;;;;5084901;28;20294;-70
2023/09/26 00:37:31;;;;;;;9.43;7.45;;;;;;;;;;5096539;28;20214;-70
2023/09/26 00:39:56;;;;;;;10.02;7.68;;;;;;;;;;5065645;28;20247;-70
2023/09/26 00:42:22;;;;;;;9.45;8.23;;;;;;;;;;5082296;28;20292;-70
2023/09/26 00:44:48;;;;;;;12.43;8.10;;;;;;;;;;5092257;28;20188;-70
2023/09/26 00:47:15;;;;;;;15.50;8.57;;;;;;;;;;5096069;28;20196;-70
2023/09/26 00:49:41;;;;;;;10.02;7.43;;;;;;;;;;5069781;28;20624;-70
2023/09/26 00:52:06;;;;;;;9.65;8.57;;;;;;;;;;5090020;28;20248;-70
2023/09/26 00:54:32;;;;;;;12.80;8.40;;;;;;;;;;5090648;28;20192;-70
2023/09/26 00:56:58;;;;;;;12.68;8.68;;;;;;;;;;5090549;28;20257;-70
2023/09/26 00:59:24;;;;;;;12.10;9.23;;;;;;;;;;5094706;28;20212;-70
2023/09/26 01:01:50;;;;;;;10.93;9.27;;;;;;;;;;5090464;28;20228;-70
2023/09/26 01:04:17;;;;;;;13.57;9.05;;;;;;;;;;5090401;28;20198;-70
2023/09/26 01:06:44;;;;;;;12.52;8.55;;;;;;;;;;5089268;28;20264;-70
2023/09/26 01:09:10;;;;;;;13.52;9.65;;;;;;;;;;5070813;28;20647;-70
2023/09/26 01:11:37;;;;;;;10.55;8.57;;;;;;;;;;5090240;28;20219;-69
2023/09/26 01:14:02;;;;;;;12.98;8.52;;;;;;;;;;5091518;28;20183;-70
2023/09/26 01:16:27;;;;;;;11.18;8.95;;;;;;;;;;5086776;28;20190;-70
2023/09/26 01:18:53;;;;;;;11.88;9.02;;;;;;;;;;5090080;28;20225;-70
2023/09/26 01:21:18;;;;;;;9.20;8.18;;;;;;;;;;5090118;28;20201;-70
2023/09/26 01:23:48;;;;;;;11.73;9.15;;;;;;;;;;5089948;28;20645;-70
2023/09/26 01:26:13;;;;;;;11.38;9.40;;;;;;;;;;5057685;28;20187;-70
2023/09/26 01:28:38;;;;;;;12.43;10.15;;;;;;;;;;5089356;28;20199;-69
2023/09/26 01:31:04;;;;;;;13.75;9.65;;;;;;;;;;5070817;28;20210;-70
2023/09/26 01:33:29;;;;;;;10.45;9.18;;;;;;;;;;5090201;28;20296;-70
2023/09/26 01:35:54;;;;;;;12.95;9.48;;;;;;;;;;5070273;28;20195;-70
2023/09/26 01:38:22;;;;;;;10.68;9.10;;;;;;;;;;5091001;28;20208;-69
2023/09/26 01:40:48;;;;;;;12.95;9.57;;;;;;;;;;5089000;28;20566;-70
2023/09/26 01:43:13;;;;;;;13.23;9.65;;;;;;;;;;5087098;28;20180;-70
2023/09/26 01:45:38;;;;;;;12.60;8.68;;;;;;;;;;5072240;28;20580;-69
2023/09/26 01:48:05;;;;;;;13.20;9.07;;;;;;;;;;5075945;28;20283;-69
2023/09/26 01:50:31;;;;;;;11.43;9.20;;;;;;;;;;5089447;28;20211;-69
2023/09/26 01:52:57;;;;;;;10.32;8.82;;;;;;;;;;5089785;28;20268;-69
2023/09/26 01:55:22;;;;;;;10.93;8.88;;;;;;;;;;5090156;28;20188;-70
2023/09/26 01:57:48;;;;;;;10.68;8.32;;;;;;;;;;5058916;28;20193;-69
2023/09/26 02:00:15;;;;;;;12.35;8.50;;;;;;;;;;5079821;28;20569;-69
2023/09/26 02:02:42;;;;;;;14.13;9.60;;;;;;;;;;5077020;28;20239;-70
2023/09/26 02:05:09;;;;;;;12.43;9.38;;;;;;;;;;5074477;28;20185;-70
2023/09/26 02:07:35;;;;;;;13.45;9.55;;;;;;;;;;5075767;28;20195;-70
2023/09/26 02:10:00;;;;;;;11.55;9.88;;;;;;;;;;5067620;28;20625;-70
2023/09/26 02:12:26;;;;;;;10.10;8.85;;;;;;;;;;5078987;28;20253;-70
2023/09/26 02:14:51;;;;;;;11.73;8.65;;;;;;;;;;5084799;28;20188;-70
2023/09/26 02:17:17;;;;;;;12.10;9.13;;;;;;;;;;5080517;28;20203;-70
2023/09/26 02:19:42;;;;;;;11.82;9.13;;;;;;;;;;5081800;28;20219;-70
2023/09/26 02:22:08;;;;;;;10.77;9.18;;;;;;;;;;5069365;28;20188;-70
2023/09/26 02:24:33;;;;;;;12.88;9.50;;;;;;;;;;5070699;28;20191;-70
2023/09/26 02:26:59;;;;;;;10.68;9.18;;;;;;;;;;5088306;28;20192;-71
2023/09/26 02:29:27;;;;;;;11.73;10.15;;;;;;;;;;5080435;28;20181;-70
2023/09/26 02:31:52;;;;;;;14.80;9.30;;;;;;;;;;5065246;28;20184;-70
2023/09/26 02:34:17;;;;;;;12.43;9.57;;;;;;;;;;5081212;28;20207;-70
2023/09/26 02:36:43;;;;;;;12.70;9.27;;;;;;;;;;5080495;28;20218;-70
2023/09/26 02:39:08;;;;;;;14.77;10.23;;;;;;;;;;5074510;28;20294;-70
2023/09/26 02:41:33;;;;;;;12.93;9.85;;;;;;;;;;5089287;28;20192;-70
2023/09/26 02:43:59;;;;;;;12.40;9.30;;;;;;;;;;5084811;28;20188;-70
2023/09/26 02:46:24;;;;;;;11.90;9.80;;;;;;;;;;5075289;28;20289;-70
2023/09/26 02:48:50;;;;;;;15.18;10.38;;;;;;;;;;5087702;28;20242;-70
2023/09/26 02:51:15;;;;;;;11.80;9.50;;;;;;;;;;5086611;28;20209;-71
2023/09/26 02:53:40;;;;;;;11.95;9.63;;;;;;;;;;5084629;28;20195;-71
2023/09/26 02:56:10;;;;;;;12.32;9.73;;;;;;;;;;5081846;28;20523;-70
2023/09/26 02:58:35;;;;;;;12.25;10.63;;;;;;;;;;5087863;28;20670;-70
2023/09/26 03:01:01;;;;;;;14.68;9.98;;;;;;;;;;5072839;28;20218;-70
2023/09/26 03:03:27;;;;;;;13.93;9.98;;;;;;;;;;5065578;28;20231;-71
2023/09/26 03:05:55;;;;;;;13.35;10.10;;;;;;;;;;5064122;28;20192;-70
2023/09/26 03:08:21;;;;;;;12.82;10.52;;;;;;;;;;5066651;28;20631;-70
2023/09/26 03:10:46;;;;;;;11.35;10.02;;;;;;;;;;5067669;28;20242;-70
2023/09/26 03:13:12;;;;;;;13.77;10.20;;;;;;;;;;5066387;28;20628;-70
2023/09/26 03:15:38;;;;;;;14.15;10.50;;;;;;;;;;5067977;28;20207;-70
2023/09/26 03:18:03;;;;;;;12.60;10.65;;;;;;;;;;5071942;28;20639;-71
2023/09/26 03:20:29;;;;;;;12.13;10.27;;;;;;;;;;5068241;28;20196;-71
2023/09/26 03:22:54;;;;;;;14.60;9.90;;;;;;;;;;5066209;28;20196;-71
2023/09/26 03:25:19;;;;;;;13.20;10.13;;;;;;;;;;5051698;28;20192;-70
2023/09/26 03:27:46;;;;;;;14.30;10.88;;;;;;;;;;5060433;28;20639;-71
2023/09/26 03:30:15;;;;;;;12.68;10.32;;;;;;;;;;5064133;28;20786;-70
2023/09/26 03:32:40;;;;;;;13.82;10.07;;;;;;;;;;5068732;28;20188;-70
2023/09/26 03:35:06;;;;;;;13.25;10.95;;;;;;;;;;5063348;28;20188;-70
2023/09/26 03:37:32;;;;;;;16.00;11.00;;;;;;;;;;5061651;28;20284;-70
2023/09/26 03:39:58;;;;;;;13.20;10.88;;;;;;;;;;5066380;28;20741;-70
2023/09/26 03:42:24;;;;;;;12.95;10.70;;;;;;;;;;5065099;28;20193;-70
2023/09/26 03:44:50;;;;;;;14.57;10.82;;;;;;;;;;5068042;28;20196;-70
2023/09/26 03:47:16;;;;;;;16.67;10.82;;;;;;;;;;5057740;28;20250;-70
2023/09/26 03:49:41;;;;;;;13.88;10.60;;;;;;;;;;5061979;28;20661;-69
2023/09/26 03:52:06;;;;;;;15.15;10.82;;;;;;;;;;5068156;28;20193;-70
2023/09/26 03:54:34;;;;;;;14.55;11.20;;;;;;;;;;5064927;28;20224;-70
2023/09/26 03:56:59;;;;;;;16.73;11.40;;;;;;;;;;5082055;28;20309;-69
2023/09/26 03:59:24;;;;;;;14.73;11.00;;;;;;;;;;5062202;28;20212;-69
2023/09/26 04:01:50;;;;;;;12.27;10.98;;;;;;;;;;5071545;28;20289;-69
2023/09/26 04:04:15;;;;;;;17.20;11.15;;;;;;;;;;5089709;28;20623;-70
2023/09/26 04:06:41;;;;;;;14.07;11.45;;;;;;;;;;5097670;28;20191;-70
2023/09/26 04:09:06;;;;;;;14.30;11.65;;;;;;;;;;5079245;28;20234;-70
2023/09/26 04:11:33;;;;;;;13.60;10.82;;;;;;;;;;5092252;28;20265;-70
2023/09/26 04:13:59;;;;;;;14.32;11.65;;;;;;;;;;5092884;28;20195;-70
2023/09/26 04:16:24;;;;;;;17.05;12.13;;;;;;;;;;5082550;28;20272;-70
2023/09/26 04:18:49;;;;;;;13.93;10.88;;;;;;;;;;5085148;28;20216;-70
2023/09/26 04:21:15;;;;;;;14.98;11.80;;;;;;;;;;5068355;28;20184;-70
2023/09/26 04:23:41;;;;;;;12.93;11.50;;;;;;;;;;5098265;28;20222;-70
2023/09/26 04:26:14;;;;;;;14.38;11.75;;;;;;;;;;5095063;28;20208;-70
2023/09/26 04:28:43;;;;;;;13.10;11.13;;;;;;;;;;5087187;28;20279;-70
2023/09/26 04:31:18;;;;;;;16.95;12.80;;;;;;;;;;5062541;28;20185;-70
2023/09/26 04:33:48;;;;;;;15.35;11.45;;;;;;;;;;5084574;28;20621;-70
2023/09/26 04:36:14;;;;;;;14.32;11.98;;;;;;;;;;5082610;28;20243;-70
2023/09/26 04:38:40;;;;;;;15.70;12.07;;;;;;;;;;5096831;28;20214;-71
2023/09/26 04:41:05;;;;;;;17.65;12.68;;;;;;;;;;5094605;28;20188;-70
2023/09/26 04:43:31;;;;;;;15.07;12.57;;;;;;;;;;5083626;28;20192;-70
2023/09/26 04:45:57;;;;;;;14.35;12.32;;;;;;;;;;5085418;28;20207;-70
2023/09/26 04:48:23;;;;;;;16.90;12.38;;;;;;;;;;5093027;28;20241;-70
2023/09/26 04:50:49;;;;;;;13.55;11.70;;;;;;;;;;5079096;28;20249;-70
2023/09/26 04:53:14;;;;;;;15.13;12.35;;;;;;;;;;5083494;28;20689;-70
2023/09/26 04:55:41;;;;;;;13.82;12.43;;;;;;;;;;5086904;28;20196;-71
2023/09/26 04:58:06;;;;;;;17.65;12.55;;;;;;;;;;5082900;28;20582;-70
2023/09/26 05:00:32;;;;;;;14.18;12.20;;;;;;;;;;5083479;28;20192;-70
2023/09/26 05:02:57;;;;;;;17.73;13.00;;;;;;;;;;5083417;28;20571;-70
2023/09/26 05:05:24;;;;;;;16.85;12.25;;;;;;;;;;5070252;28;20192;-70
2023/09/26 05:07:49;;;;;;;14.88;12.20;;;;;;;;;;5095583;28;20187;-70
2023/09/26 05:10:16;;;;;;;16.23;12.82;;;;;;;;;;5088468;28;20187;-70
2023/09/26 05:12:42;;;;;;;13.55;11.95;;;;;;;;;;5087217;28;20615;-69
2023/09/26 05:15:12;;;;;;;18.27;12.27;;;;;;;;;;5079619;28;20353;-69
2023/09/26 05:17:45;;;;;;;13.95;12.45;;;;;;;;;;5075630;28;20183;-69
2023/09/26 05:20:11;;;;;;;13.18;11.88;;;;;;;;;;5087275;28;20243;-70
2023/09/26 05:22:40;;;;;;;14.07;11.68;;;;;;;;;;5088120;28;20246;-70
2023/09/26 05:25:06;;;;;;;17.98;12.32;;;;;;;;;;5086827;28;20215;-70
2023/09/26 05:27:31;;;;;;;18.13;12.10;;;;;;;;;;5085272;28;20184;-70
2023/09/26 05:29:58;;;;;;;13.88;12.20;;;;;;;;;;5086156;28;20188;-70
2023/09/26 05:32:23;;;;;;;15.63;12.75;;;;;;;;;;5073745;28;20192;-70
2023/09/26 05:34:48;;;;;;;15.95;12.15;;;;;;;;;;5089926;28;20213;-70
2023/09/26 05:37:14;;;;;;;12.82;11.10;;;;;;;;;;5085801;28;20278;-70
2023/09/26 05:39:39;;;;;;;14.13;12.52;;;;;;;;;;5083063;28;20268;-70
2023/09/26 05:42:04;;;;;;;15.13;12.50;;;;;;;;;;5083671;28;20194;-70
2023/09/26 05:44:30;;;;;;;15.07;11.98;;;;;;;;;;5088820;28;20249;-69
2023/09/26 05:46:56;;;;;;;18.67;12.55;;;;;;;;;;5052840;28;20201;-70
2023/09/26 05:49:22;;;;;;;14.20;11.85;;;;;;;;;;5068404;28;20696;-70
2023/09/26 05:51:47;;;;;;;14.63;12.73;;;;;;;;;;5081947;28;20260;-70
2023/09/26 05:54:13;;;;;;;15.88;12.65;;;;;;;;;;5067395;28;20184;-69
2023/09/26 05:56:38;;;;;;;16.58;12.63;;;;;;;;;;5058432;28;20268;-70
2023/09/26 05:59:04;;;;;;;16.30;12.90;;;;;;;;;;5078489;28;20270;-69
2023/09/26 06:01:29;;;;;;;16.05;12.68;;;;;;;;;;5081500;28;20261;-70
2023/09/26 06:03:54;;;;;;;14.52;12.82;;;;;;;;;;5085205;28;20294;-69
2023/09/26 06:06:20;;;;;;;16.55;13.60;;;;;;;;;;5088298;28;20312;-69
2023/09/26 06:08:46;;;;;;;15.20;12.52;;;;;;;;;;5081438;28;20176;-70
2023/09/26 06:11:11;;;;;;;15.50;12.07;;;;;;;;;;5084762;28;20188;-70
2023/09/26 06:13:39;;;;;;;16.35;11.82;;;;;;;;;;5080851;28;20184;-70
2023/09/26 06:16:05;;;;;;;19.38;13.15;;;;;;;;;;5093274;28;20225;-70
2023/09/26 06:18:30;;;;;;;17.65;12.45;;;;;;;;;;5084452;28;20234;-70
2023/09/26 06:20:56;;;;;;;14.65;12.25;;;;;;;;;;5093305;28;20338;-70
2023/09/26 06:23:21;;;;;;;15.13;12.63;;;;;;;;;;5087566;28;20501;-70
2023/09/26 06:25:57;;;;;;;15.15;12.85;;;;;;;;;;5085725;28;20237;-70
2023/09/26 06:28:23;;;;;;;15.00;12.63;;;;;;;;;;5097082;28;20186;-70
2023/09/26 06:30:48;;;;;;;13.90;11.75;;;;;;;;;;5082267;28;20189;-70
2023/09/26 06:33:13;;;;;;;18.85;12.10;;;;;;;;;;5072734;28;20201;-70
2023/09/26 06:35:39;;;;;;;15.45;11.52;;;;;;;;;;5076074;28;20582;-70
2023/09/26 06:38:04;;;;;;;16.27;12.13;;;;;;;;;;5088123;28;20191;-70
2023/09/26 06:40:29;;;;;;;19.90;13.50;;;;;;;;;;5086668;28;20278;-71
2023/09/26 06:42:56;;;;;;;15.32;12.82;;;;;;;;;;5074913;28;20220;-71
2023/09/26 06:45:22;;;;;;;15.13;12.13;;;;;;;;;;5075518;28;20582;-70
2023/09/26 06:47:48;;;;;;;13.13;11.52;;;;;;;;;;5072434;28;20186;-70
2023/09/26 06:50:13;;;;;;;12.75;11.20;;;;;;;;;;5072508;28;20264;-71
2023/09/26 06:52:39;;;;;;;18.10;12.18;;;;;;;;;;5081032;28;20200;-71
2023/09/26 06:55:09;;;;;;;14.13;11.32;;;;;;;;;;5080944;28;20184;-71
2023/09/26 06:57:35;;;;;;;14.48;12.40;;;;;;;;;;5088417;28;20515;-71
2023/09/26 07:00:05;;;;;;;17.30;12.18;;;;;;;;;;5074643;28;20215;-71
2023/09/26 07:02:31;;;;;;;13.38;11.90;;;;;;;;;;5069122;28;20264;-71
2023/09/26 07:04:57;;;;;;;16.35;12.38;;;;;;;;;;5070128;28;20231;-71
2023/09/26 07:07:23;;;;;;;16.63;11.50;;;;;;;;;;5069175;28;20281;-71
2023/09/26 07:09:48;;;;;;;16.63;11.95;;;;;;;;;;5074298;28;20193;-70
2023/09/26 07:12:14;;;;;;;14.10;11.55;;;;;;;;;;5091400;28;20202;-70
2023/09/26 07:14:39;;;;;;;12.25;10.95;;;;;;;;;;5074732;28;20196;-70
2023/09/26 07:17:07;;;;;;;15.98;11.90;;;;;;;;;;5072277;28;20210;-70
2023/09/26 07:19:32;;;;;;;15.05;11.10;;;;;;;;;;5074951;28;20235;-70
2023/09/26 07:21:58;;;;;;;14.75;11.02;;;;;;;;;;5063432;28;20295;-70
2023/09/26 07:24:24;;;;;;;13.75;11.57;;;;;;;;;;5069317;28;21443;-70
2023/09/26 07:26:50;;;;;;;13.13;11.07;;;;;;;;;;5074569;28;20191;-70
2023/09/26 07:29:16;;;;;;;13.65;11.15;;;;;;;;;;5079206;28;20226;-70
2023/09/26 07:31:41;;;;;;;13.35;11.38;;;;;;;;;;5082715;28;20216;-70
2023/09/26 07:34:07;;;;;;;13.52;11.40;;;;;;;;;;5082026;28;20197;-71
2023/09/26 07:36:32;;;;;;;12.95;10.93;;;;;;;;;;5081580;28;20287;-70
2023/09/26 07:38:58;;;;;;;14.02;11.10;;;;;;;;;;5083453;28;20212;-69
2023/09/26 07:41:23;;;;;;;16.45;11.38;;;;;;;;;;5053364;28;20271;-70
2023/09/26 07:43:48;;;;;;;15.85;11.80;;;;;;;;;;5096400;28;20211;-70
2023/09/26 07:46:14;;;;;;;12.95;10.70;;;;;;;;;;5085621;28;20253;-70
2023/09/26 07:48:40;;;;;;;16.10;11.70;;;;;;;;;;5082483;28;20268;-70
2023/09/26 07:51:07;;;;;;;13.98;11.98;;;;;;;;;;5066082;28;20188;-70
2023/09/26 07:53:32;;;;;;;13.15;11.25;;;;;;;;;;5067176;28;20185;-72
2023/09/26 07:55:58;;;;;;;14.30;11.02;;;;;;;;;;5094226;28;20177;-70
2023/09/26 07:58:24;;;;;;;13.65;10.40;;;;;;;;;;5065485;28;20253;-71
2023/09/26 08:00:50;;;;;;;14.65;10.88;;;;;;;;;;5080889;28;20203;-71
2023/09/26 08:03:15;;;;;;;12.05;10.52;;;;;;;;;;5085151;28;20236;-70
2023/09/26 08:05:40;;;;;;;15.98;10.90;;;;;;;;;;5086685;28;20859;-70
2023/09/26 08:08:06;;;;;;;13.02;9.93;;;;;;;;;;5057617;28;20238;-70
2023/09/26 08:10:36;;;;;;;14.80;10.50;;;;;;;;;;5061604;28;20180;-71
2023/09/26 08:13:01;;;;;;;11.48;9.50;;;;;;;;;;5071673;28;20188;-70
2023/09/26 08:15:30;;;;;;;11.80;9.07;;;;;;;;;;5089215;28;20211;-71
2023/09/26 08:17:56;;;;;;;13.57;9.27;;;;;;;;;;5071559;28;20176;-70
2023/09/26 08:20:23;;;;;;;13.40;8.93;;;;;;;;;;5083189;28;20235;-71
2023/09/26 08:22:49;;;;;;;12.85;8.80;;;;;;;;;;5069706;28;20190;-71
2023/09/26 08:25:14;;;;;;;12.50;7.32;;;;;;;;;;5075699;28;20188;-70
2023/09/26 08:27:40;;;;;;;9.82;6.28;;;;;;;;;;5089193;28;20245;-70
2023/09/26 08:30:07;;;;;;;10.85;6.55;;;;;;;;;;5089236;28;20670;-71
2023/09/26 08:32:33;;;;;;;12.27;7.40;;;;;;;;;;5090022;28;20486;-70
2023/09/26 08:34:58;;;;;;;8.75;5.80;;;;;;;;;;5087552;28;20238;-70
2023/09/26 08:37:24;;;;;;;11.40;6.68;;;;;;;;;;5095982;28;20203;-71
2023/09/26 08:39:50;;;;;;;9.77;5.85;;;;;;;;;;5109941;28;20211;-70
2023/09/26 08:42:26;;;;;;;11.10;5.88;;;;;;;;;;5098722;28;20188;-70
2023/09/26 08:44:51;;;;;;;8.50;5.63;;;;;;;;;;5082793;28;20267;-70
2023/09/26 08:47:16;;;;;;;8.43;5.78;;;;;;;;;;5085079;28;20648;-70
2023/09/26 08:49:44;;;;;;;13.02;5.38;;;;;;;;;;5089812;28;20192;-70
2023/09/26 08:52:09;;;;;;;7.55;5.28;;;;;;;;;;5087956;28;20230;-71
2023/09/26 08:54:35;;;;;;;9.57;5.95;;;;;;;;;;5098244;28;20219;-70
2023/09/26 08:57:01;;;;;;;13.60;6.25;;;;;;;;;;5094219;28;20628;-70
2023/09/26 08:59:28;;;;;;;8.25;5.35;;;;;;;;;;5087677;28;20207;-72
2023/09/26 09:01:54;;;;;;;8.52;5.45;;;;;;;;;;5069710;28;20227;-71
2023/09/26 09:04:21;;;;;;;7.10;5.97;;;;;;;;;;5079380;28;20608;-70
2023/09/26 09:06:46;;;;;;;9.70;6.10;;;;;;;;;;5090771;28;20200;-71
2023/09/26 09:09:13;;;;;;;10.48;6.07;;;;;;;;;;5078921;28;20181;-71
2023/09/26 09:11:39;;;;;;;9.23;5.85;;;;;;;;;;5073324;28;20271;-70
2023/09/26 09:14:06;;;;;;;8.85;6.15;;;;;;;;;;5082520;28;20283;-71
2023/09/26 09:16:31;;;;;;;11.38;6.35;;;;;;;;;;5090340;28;20230;-70
2023/09/26 09:18:58;;;;;;;8.25;6.10;;;;;;;;;;5091152;28;20208;-71
2023/09/26 09:21:30;;;;;;;9.50;6.03;;;;;;;;;;5072328;28;20180;-70
2023/09/26 09:23:58;;;;;;;10.05;5.82;;;;;;;;;;5090223;28;20196;-70
2023/09/26 09:26:24;;;;;;;13.93;5.82;;;;;;;;;;5090121;28;20195;-70
2023/09/26 09:28:52;;;;;;;7.30;5.47;;;;;;;;;;5079468;28;20199;-71
2023/09/26 09:31:18;;;;;;;10.98;6.05;;;;;;;;;;5098795;28;20599;-71
2023/09/26 09:33:48;;;;;;;9.20;6.25;;;;;;;;;;5095585;28;20237;-71
2023/09/26 09:36:14;;;;;;;10.52;6.43;;;;;;;;;;5099166;28;20266;-71
2023/09/26 09:38:39;;;;;;;10.70;5.95;;;;;;;;;;5071513;28;20307;-71
2023/09/26 09:41:08;;;;;;;11.35;5.85;;;;;;;;;;5093370;28;20271;-70
2023/09/26 09:43:34;;;;;;;10.63;6.15;;;;;;;;;;5092898;28;20247;-70
2023/09/26 09:46:08;;;;;;;5.60;4.60;;;;;;;;;;5100189;28;20287;-71
2023/09/26 09:48:42;;;;;;;9.98;6.32;;;;;;;;;;5086533;28;20221;-70
2023/09/26 09:51:10;;;;;;;10.88;6.38;;;;;;;;;;5090379;28;20187;-71
2023/09/26 09:53:36;;;;;;;9.55;5.75;;;;;;;;;;5040994;28;20189;-70
2023/09/26 09:56:08;;;;;;;10.55;6.07;;;;;;;;;;5093116;28;20180;-70
2023/09/26 09:58:39;;;;;;;10.05;5.70;;;;;;;;;;5080238;28;20647;-71
2023/09/26 10:01:05;;;;;;;8.95;5.47;;;;;;;;;;5085587;28;20200;-71
2023/09/26 10:03:33;;;;;;;9.55;5.55;;;;;;;;;;5050380;28;20221;-71
2023/09/26 10:05:59;;;;;;;8.02;5.63;;;;;;;;;;5045302;28;20194;-71
2023/09/26 10:08:26;;;;;;;11.77;6.03;;;;;;;;;;5032963;28;20321;-71
2023/09/26 10:10:53;;;;;;;8.60;5.47;;;;;;;;;;5041689;28;20578;-71
2023/09/26 10:13:19;;;;;;;9.68;5.88;;;;;;;;;;5046481;28;20189;-71
2023/09/26 10:16:05;;;;;;;8.13;5.13;;;;;;;;;;5046090;28;20636;-69
2023/09/26 10:18:33;;;;;;;10.85;5.82;;;;;;;;;;5057020;28;20194;-70
2023/09/26 10:20:58;;;;;;;7.97;5.43;;;;;;;;;;5058909;28;20216;-70
2023/09/26 10:23:24;;;;;;;10.77;5.70;;;;;;;;;;5059175;28;20678;-71
2023/09/26 10:25:49;;;;;;;11.23;5.90;;;;;;;;;;5045768;28;20372;-71
2023/09/26 10:28:16;;;;;;;12.00;5.93;;;;;;;;;;5052751;28;20647;-71
2023/09/26 10:30:45;;;;;;;11.15;5.53;;;;;;;;;;5057546;28;20191;-71
2023/09/26 10:33:12;;;;;;;9.55;5.15;;;;;;;;;;5045636;28;20194;-71
2023/09/26 10:35:43;;;;;;;10.55;5.80;;;;;;;;;;5067306;28;20214;-71
2023/09/26 10:38:18;;;;;;;9.05;5.20;;;;;;;;;;5047385;28;20215;-70
2023/09/26 10:40:45;;;;;;;10.13;5.88;;;;;;;;;;5036759;28;20624;-71
2023/09/26 10:43:10;;;;;;;11.23;5.85;;;;;;;;;;5047027;28;20663;-72
2023/09/26 10:45:36;;;;;;;11.23;5.40;;;;;;;;;;5045683;28;20205;-70
2023/09/26 10:48:05;;;;;;;7.03;4.82;;;;;;;;;;5037566;28;20726;-71
2023/09/26 10:50:32;;;;;;;9.25;5.63;;;;;;;;;;5036430;28;21183;-70
2023/09/26 10:52:57;;;;;;;11.57;5.72;;;;;;;;;;5041337;28;20583;-71
2023/09/26 10:55:23;;;;;;;8.20;6.00;;;;;;;;;;5042657;28;20192;-72
2023/09/26 10:57:51;;;;;;;9.23;5.40;;;;;;;;;;5037851;28;20572;-71
2023/09/26 11:00:17;;;;;;;9.02;5.50;;;;;;;;;;5044650;28;20213;-71
2023/09/26 11:02:46;;;;;;;9.35;4.57;;;;;;;;;;5062242;28;20637;-70
2023/09/26 11:05:13;;;;;;;6.78;4.57;;;;;;;;;;5050645;28;20646;-70
2023/09/26 11:07:40;;;;;;;10.13;4.78;;;;;;;;;;5076266;28;20680;-73
2023/09/26 11:10:12;;;;;;;6.75;4.72;;;;;;;;;;5074435;28;20226;-71
2023/09/26 11:12:37;;;;;;;9.85;4.70;;;;;;;;;;5089523;28;20192;-72
2023/09/26 11:15:03;;;;;;;8.45;4.05;;;;;;;;;;5068187;28;20235;-71
2023/09/26 11:17:29;;;;;;;6.65;3.88;;;;;;;;;;5070174;28;20203;-71
2023/09/26 11:19:58;;;;;;;7.00;3.92;;;;;;;;;;5081594;28;20218;-71
2023/09/26 11:22:25;;;;;;;7.32;3.45;;;;;;;;;;5071342;28;20211;-69
2023/09/26 11:25:11;;;;;;;5.28;3.00;;;;;;;;;;5082396;28;20214;-70
2023/09/26 11:27:41;;;;;;;7.43;3.47;;;;;;;;;;5092295;28;20634;-71
2023/09/26 11:30:14;;;;;;;6.35;3.70;;;;;;;;;;5082704;28;20179;-70
2023/09/26 11:32:41;;;;;;;9.27;4.10;;;;;;;;;;5072581;28;20196;-71
2023/09/26 11:35:06;;;;;;;4.32;3.30;;;;;;;;;;5086869;28;20742;-69
2023/09/26 11:37:32;;;;;;;7.05;3.42;;;;;;;;;;5097172;28;20204;-69
2023/09/26 11:39:58;;;;;;;3.63;2.92;;;;;;;;;;5069697;28;20192;-70
2023/09/26 11:42:23;;;;;;;6.18;3.38;;;;;;;;;;5085201;28;20192;-72
2023/09/26 11:44:56;;;;;;;7.15;3.92;;;;;;;;;;5094721;28;20247;-72
2023/09/26 11:47:24;;;;;;;8.15;3.60;;;;;;;;;;5058466;28;20188;-70
2023/09/26 11:49:51;;;;;;;4.55;3.15;;;;;;;;;;5097980;28;20183;-70
2023/09/26 11:52:17;;;;;;;6.32;3.13;;;;;;;;;;5090847;28;20551;-70
2023/09/26 11:54:45;;;;;;;7.97;3.47;;;;;;;;;;5092313;28;20241;-70
2023/09/26 11:57:15;;;;;;;5.05;3.45;;;;;;;;;;5091852;28;20689;-71
2023/09/26 11:59:40;;;;;;;6.88;3.80;;;;;;;;;;5074774;28;20219;-70
2023/09/26 12:02:08;;;;;;;6.25;3.75;;;;;;;;;;5083067;28;20229;-69
2023/09/26 12:04:33;;;;;;;5.72;3.40;;;;;;;;;;5073376;28;20187;-72
2023/09/26 12:07:03;;;;;;;5.53;3.80;;;;;;;;;;5089252;28;20540;-70
2023/09/26 12:09:28;;;;;;;9.40;3.80;;;;;;;;;;5093176;28;20196;-70
2023/09/26 12:11:55;;;;;;;6.65;3.80;;;;;;;;;;5092774;28;20627;-71
2023/09/26 12:14:20;;;;;;;8.18;4.45;;;;;;;;;;5081059;28;20529;-70
2023/09/26 12:16:50;;;;;;;5.95;4.10;;;;;;;;;;5080570;28;20180;-71
2023/09/26 12:19:16;;;;;;;6.15;4.00;;;;;;;;;;5082295;28;20572;-70
2023/09/26 12:21:41;;;;;;;8.43;4.72;;;;;;;;;;5079487;28;20276;-70
2023/09/26 12:24:07;;;;;;;6.38;3.70;;;;;;;;;;5081320;28;20180;-70
2023/09/26 12:26:32;;;;;;;9.43;3.50;;;;;;;;;;5089632;28;20217;-69
2023/09/26 12:28:58;;;;;;;7.53;3.03;;;;;;;;;;5087923;28;20179;-70
2023/09/26 12:31:23;;;;;;;5.72;3.22;;;;;;;;;;5101687;28;20191;-69
2023/09/26 12:33:49;;;;;;;8.65;3.38;;;;;;;;;;5086727;28;20228;-71
2023/09/26 12:36:14;;;;;;;5.60;2.95;;;;;;;;;;5066764;28;20560;-71
2023/09/26 12:38:41;;;;;;;7.55;2.75;;;;;;;;;;5069657;28;20192;-70
2023/09/26 12:41:06;;;;;;;4.72;2.67;;;;;;;;;;4389909;28;10000766;-69
2023/09/26 12:43:32;;;;;;;6.20;2.00;;;;;;;;;;5083308;28;20681;-70
2023/09/26 12:45:57;;;;;;;4.03;2.10;;;;;;;;;;5084104;28;20532;-73
2023/09/26 12:48:24;;;;;;;3.95;2.72;;;;;;;;;;5088776;28;20264;-71
2023/09/26 12:50:49;;;;;;;4.47;3.10;;;;;;;;;;5088318;28;20208;-71
2023/09/26 12:53:15;;;;;;;5.07;3.13;;;;;;;;;;5082369;28;20192;-70
2023/09/26 12:55:40;;;;;;;2.92;2.28;;;;;;;;;;5060168;28;20556;-70
2023/09/26 12:58:06;;;;;;;6.60;2.70;;;;;;;;;;5070515;28;20192;-69
2023/09/26 13:00:33;;;;;;;3.85;2.60;;;;;;;;;;5073805;28;20509;-71
2023/09/26 13:02:59;;;;;;;4.43;2.60;;;;;;;;;;5075406;28;20300;-70
2023/09/26 13:05:24;;;;;;;4.93;2.90;;;;;;;;;;5072734;28;20408;-70
2023/09/26 13:07:50;;;;;;;7.53;3.25;;;;;;;;;;5079900;28;20256;-71
2023/09/26 13:10:15;;;;;;;4.60;3.05;;;;;;;;;;5074203;28;20192;-70
2023/09/26 13:12:40;;;;;;;4.68;3.15;;;;;;;;;;5090152;28;20196;-70
2023/09/26 13:15:08;;;;;;;5.95;3.30;;;;;;;;;;5087933;28;20179;-70
2023/09/26 13:17:34;;;;;;;5.32;3.22;;;;;;;;;;5081761;28;20196;-71
2023/09/26 13:20:00;;;;;;;9.05;3.35;;;;;;;;;;5081511;28;20203;-70
2023/09/26 13:22:25;;;;;;;5.53;3.50;;;;;;;;;;5076617;28;20558;-70
2023/09/26 13:24:50;;;;;;;6.50;3.60;;;;;;;;;;5073184;28;20193;-70
2023/09/26 13:27:16;;;;;;;7.53;4.05;;;;;;;;;;5090387;28;20199;-71
2023/09/26 13:29:41;;;;;;;6.25;3.80;;;;;;;;;;5088331;28;20517;-70
2023/09/26 13:32:06;;;;;;;7.60;3.22;;;;;;;;;;5098748;28;20225;-71
2023/09/26 13:34:33;;;;;;;6.53;3.78;;;;;;;;;;5085325;28;20266;-70
2023/09/26 13:36:58;;;;;;;7.13;3.70;;;;;;;;;;5080770;28;20246;-71
2023/09/26 13:39:24;;;;;;;7.13;3.58;;;;;;;;;;5090256;28;20249;-71
2023/09/26 13:41:50;;;;;;;7.38;3.83;;;;;;;;;;5080233;28;20271;-71
2023/09/26 13:44:23;;;;;;;9.58;4.22;;;;;;;;;;4986212;28;10000633;-70
2023/09/26 13:46:48;;;;;;;6.07;3.85;;;;;;;;;;5064265;28;20420;-70
2023/09/26 13:49:14;;;;;;;6.82;4.18;;;;;;;;;;5066276;28;20216;-70
2023/09/26 13:51:39;;;;;;;7.07;3.80;;;;;;;;;;5057105;28;20196;-70
2023/09/26 13:54:06;;;;;;;8.90;4.03;;;;;;;;;;5080992;28;20188;-70
2023/09/26 13:56:32;;;;;;;6.03;3.67;;;;;;;;;;5072793;28;20261;-70
2023/09/26 13:58:57;;;;;;;7.88;3.85;;;;;;;;;;5056025;28;20208;-70
2023/09/26 14:01:22;;;;;;;8.43;3.97;;;;;;;;;;5057814;28;20235;-72
2023/09/26 14:03:48;;;;;;;7.10;4.20;;;;;;;;;;5064300;28;20247;-71
2023/09/26 14:06:13;;;;;;;7.28;4.10;;;;;;;;;;5075327;28;20585;-71
2023/09/26 14:08:40;;;;;;;6.88;3.92;;;;;;;;;;5064503;28;20267;-71
2023/09/26 14:11:05;;;;;;;7.03;3.72;;;;;;;;;;5070939;28;20202;-70
2023/09/26 14:13:31;;;;;;;9.50;3.88;;;;;;;;;;5077862;28;20543;-70
2023/09/26 14:15:57;;;;;;;7.00;3.80;;;;;;;;;;5077372;28;20500;-71
2023/09/26 14:18:22;;;;;;;10.95;4.45;;;;;;;;;;5092377;28;20218;-70
2023/09/26 14:20:51;;;;;;;6.05;3.80;;;;;;;;;;5062883;28;20208;-71
2023/09/26 14:23:25;;;;;;;7.40;4.15;;;;;;;;;;5086461;28;20662;-70